createdAt,value
2017-10-04T00:00:31.970Z,0.00
2017-10-04T00:01:31.936Z,0.00
2017-10-04T00:02:31.900Z,0.00
2017-10-04T00:03:31.866Z,0.00
2017-10-04T00:04:31.831Z,0.00
2017-10-04T00:05:31.794Z,0.00
2017-10-04T00:06:31.761Z,0.00
2017-10-04T00:07:31.725Z,0.00
2017-10-04T00:08:31.689Z,0.00
2017-10-04T00:09:31.653Z,0.00
2017-10-04T00:10:31.618Z,0.00
2017-10-04T00:11:31.584Z,0.00
2017-10-04T00:12:31.546Z,0.00
2017-10-04T00:13:31.511Z,0.00
2017-10-04T00:14:31.478Z,0.00
2017-10-04T00:15:31.442Z,0.00
2017-10-04T00:16:31.406Z,0.00
2017-10-04T00:17:31.369Z,0.00
2017-10-04T00:18:31.336Z,0.00
2017-10-04T00:19:31.301Z,0.00
2017-10-04T00:20:31.291Z,0.00
2017-10-04T00:21:31.228Z,0.00
2017-10-04T00:22:31.194Z,0.00
2017-10-04T00:23:31.158Z,0.00
2017-10-04T00:24:31.122Z,0.00
2017-10-04T00:25:31.087Z,0.00
2017-10-04T00:26:31.052Z,0.00
2017-10-04T00:27:31.016Z,0.00
2017-10-04T00:28:30.980Z,0.00
2017-10-04T00:29:30.947Z,0.00
2017-10-04T00:30:30.909Z,0.00
2017-10-04T00:31:30.874Z,0.00
2017-10-04T00:32:30.839Z,0.00
2017-10-04T00:33:30.804Z,0.00
2017-10-04T00:34:30.767Z,0.00
2017-10-04T00:35:30.734Z,0.00
2017-10-04T00:36:30.696Z,0.00
2017-10-04T00:37:30.660Z,0.00
2017-10-04T00:38:30.632Z,0.00
2017-10-04T00:39:30.590Z,0.00
2017-10-04T00:40:30.554Z,0.00
2017-10-04T00:41:30.520Z,0.00
2017-10-04T00:42:30.485Z,0.00
2017-10-04T00:43:30.449Z,0.00
2017-10-04T00:44:30.415Z,0.00
2017-10-04T00:45:30.377Z,0.00
2017-10-04T00:46:30.342Z,0.00
2017-10-04T00:47:30.307Z,0.00
2017-10-04T00:48:30.270Z,0.00
2017-10-04T00:49:30.237Z,0.00
2017-10-04T00:50:30.200Z,0.00
2017-10-04T00:51:30.164Z,0.00
2017-10-04T00:52:30.129Z,0.00
2017-10-04T00:53:30.093Z,0.00
2017-10-04T00:54:30.061Z,0.00
2017-10-04T00:55:30.022Z,0.00
2017-10-04T00:56:29.986Z,0.00
2017-10-04T00:57:29.948Z,0.00
2017-10-04T00:58:29.914Z,0.00
2017-10-04T00:59:29.879Z,0.00
2017-10-04T01:00:29.843Z,0.00
2017-10-04T01:01:29.814Z,0.00
2017-10-04T01:02:29.773Z,0.00
2017-10-04T01:03:29.738Z,0.00
2017-10-04T01:04:29.700Z,0.00
2017-10-04T01:05:29.664Z,0.00
2017-10-04T01:06:29.629Z,0.00
2017-10-04T01:07:29.595Z,0.00
2017-10-04T01:08:29.558Z,0.00
2017-10-04T01:09:29.523Z,0.00
2017-10-04T01:10:29.488Z,0.00
2017-10-04T01:11:29.452Z,0.00
2017-10-04T01:12:29.417Z,0.00
2017-10-04T01:13:29.380Z,0.00
2017-10-04T01:14:29.344Z,0.00
2017-10-04T01:15:29.310Z,0.00
2017-10-04T01:16:29.274Z,0.00
2017-10-04T01:17:29.237Z,0.00
2017-10-04T01:18:29.202Z,0.00
2017-10-04T01:19:29.167Z,0.00
2017-10-04T01:20:29.130Z,0.00
2017-10-04T01:21:29.094Z,0.00
2017-10-04T01:22:29.061Z,0.00
2017-10-04T01:23:29.022Z,0.00
2017-10-04T01:24:28.987Z,0.00
2017-10-04T01:25:28.951Z,0.00
2017-10-04T01:26:28.916Z,0.00
2017-10-04T01:27:28.881Z,0.00
2017-10-04T01:28:28.843Z,0.00
2017-10-04T01:29:28.808Z,0.00
2017-10-04T01:30:28.771Z,0.00
2017-10-04T01:31:28.737Z,0.00
2017-10-04T01:32:28.701Z,0.00
2017-10-04T01:33:28.664Z,0.00
2017-10-04T01:34:28.628Z,0.00
2017-10-04T01:35:28.592Z,0.00
2017-10-04T01:36:28.554Z,0.00
2017-10-04T01:37:28.520Z,0.00
2017-10-04T01:38:28.484Z,0.00
2017-10-04T01:39:28.449Z,0.00
2017-10-04T01:40:28.412Z,0.00
2017-10-04T01:41:28.375Z,0.00
2017-10-04T01:42:28.340Z,0.00
2017-10-04T01:43:28.304Z,0.00
2017-10-04T01:44:28.266Z,0.00
2017-10-04T01:45:28.241Z,0.00
2017-10-04T01:46:28.196Z,0.00
2017-10-04T01:47:28.159Z,0.00
2017-10-04T01:48:28.121Z,0.00
2017-10-04T01:49:28.086Z,0.00
2017-10-04T01:50:28.051Z,0.00
2017-10-04T01:51:28.013Z,0.00
2017-10-04T01:52:27.977Z,0.00
2017-10-04T01:53:27.940Z,0.00
2017-10-04T01:54:27.905Z,0.00
2017-10-04T01:55:27.869Z,0.00
2017-10-04T01:56:27.831Z,0.00
2017-10-04T01:57:27.795Z,0.00
2017-10-04T01:58:27.758Z,0.00
2017-10-04T01:59:27.725Z,0.00
2017-10-04T02:00:27.687Z,0.00
2017-10-04T02:01:27.661Z,0.00
2017-10-04T02:02:27.633Z,0.00
2017-10-04T02:03:27.579Z,0.00
2017-10-04T02:04:27.540Z,0.00
2017-10-04T02:05:27.505Z,0.00
2017-10-04T02:06:27.468Z,0.00
2017-10-04T02:07:27.432Z,0.00
2017-10-04T02:08:27.394Z,0.00
2017-10-04T02:09:27.359Z,0.00
2017-10-04T02:10:27.322Z,0.00
2017-10-04T02:11:27.288Z,0.00
2017-10-04T02:12:27.250Z,0.00
2017-10-04T02:13:27.215Z,0.00
2017-10-04T02:14:27.177Z,0.00
2017-10-04T02:15:27.140Z,0.00
2017-10-04T02:16:27.103Z,0.00
2017-10-04T02:17:27.076Z,0.00
2017-10-04T02:18:27.031Z,0.00
2017-10-04T02:19:26.995Z,0.00
2017-10-04T02:20:26.958Z,0.00
2017-10-04T02:21:26.924Z,0.00
2017-10-04T02:22:26.886Z,0.00
2017-10-04T02:23:26.849Z,0.00
2017-10-04T02:24:26.813Z,0.00
2017-10-04T02:25:26.776Z,0.00
2017-10-04T02:26:26.742Z,0.00
2017-10-04T02:27:26.704Z,0.00
2017-10-04T02:28:26.669Z,0.00
2017-10-04T02:29:26.636Z,0.00
2017-10-04T02:30:26.595Z,0.00
2017-10-04T02:31:26.559Z,0.00
2017-10-04T02:32:26.521Z,0.00
2017-10-04T02:33:26.488Z,0.00
2017-10-04T02:34:26.451Z,0.00
2017-10-04T02:35:26.415Z,0.00
2017-10-04T02:36:26.377Z,0.00
2017-10-04T02:37:26.343Z,0.00
2017-10-04T02:38:26.306Z,0.00
2017-10-04T02:39:26.271Z,0.00
2017-10-04T02:40:26.234Z,0.00
2017-10-04T02:41:26.197Z,0.00
2017-10-04T02:42:26.161Z,0.00
2017-10-04T02:43:26.126Z,0.00
2017-10-04T02:44:26.089Z,0.00
2017-10-04T02:45:26.054Z,0.00
2017-10-04T02:46:26.018Z,0.00
2017-10-04T02:47:25.981Z,0.00
2017-10-04T02:48:25.945Z,0.00
2017-10-04T02:49:25.908Z,0.00
2017-10-04T02:50:25.873Z,0.00
2017-10-04T02:51:25.838Z,0.00
2017-10-04T02:52:25.800Z,0.00
2017-10-04T02:53:25.764Z,0.00
2017-10-04T02:54:25.728Z,0.00
2017-10-04T02:55:25.692Z,0.00
2017-10-04T02:56:25.656Z,0.00
2017-10-04T02:57:25.619Z,0.00
2017-10-04T02:58:25.584Z,0.00
2017-10-04T02:59:25.547Z,0.00
2017-10-04T03:00:25.512Z,0.00
2017-10-04T03:01:25.476Z,0.00
2017-10-04T03:02:25.442Z,0.00
2017-10-04T03:03:25.405Z,0.00
2017-10-04T03:04:25.367Z,0.00
2017-10-04T03:05:25.333Z,0.00
2017-10-04T03:06:25.297Z,0.00
2017-10-04T03:07:25.260Z,0.00
2017-10-04T03:08:25.224Z,0.00
2017-10-04T03:09:25.188Z,0.00
2017-10-04T03:10:25.153Z,0.00
2017-10-04T03:11:25.118Z,0.00
2017-10-04T03:12:25.082Z,0.00
2017-10-04T03:13:25.045Z,0.00
2017-10-04T03:14:25.010Z,0.00
2017-10-04T03:15:24.975Z,0.00
2017-10-04T03:16:24.938Z,0.00
2017-10-04T03:17:24.903Z,0.00
2017-10-04T03:18:24.867Z,0.00
2017-10-04T03:19:24.833Z,0.00
2017-10-04T03:20:24.796Z,0.00
2017-10-04T03:21:24.759Z,0.00
2017-10-04T03:22:24.724Z,0.00
2017-10-04T03:23:24.688Z,0.00
2017-10-04T03:24:24.652Z,0.00
2017-10-04T03:25:24.616Z,0.00
2017-10-04T03:26:24.584Z,0.00
2017-10-04T03:27:24.546Z,0.00
2017-10-04T03:28:24.509Z,0.00
2017-10-04T03:29:24.473Z,0.00
2017-10-04T03:30:24.440Z,0.00
2017-10-04T03:31:24.402Z,0.00
2017-10-04T03:32:24.367Z,0.00
2017-10-04T03:33:24.330Z,0.00
2017-10-04T03:34:24.296Z,0.00
2017-10-04T03:35:24.260Z,0.00
2017-10-04T03:36:24.224Z,0.00
2017-10-04T03:37:24.188Z,0.00
2017-10-04T03:38:24.154Z,0.00
2017-10-04T03:39:24.116Z,0.00
2017-10-04T03:40:24.080Z,0.00
2017-10-04T03:41:24.045Z,0.00
2017-10-04T03:42:24.009Z,0.00
2017-10-04T03:43:23.973Z,0.00
2017-10-04T03:44:23.938Z,0.00
2017-10-04T03:45:23.904Z,0.00
2017-10-04T03:46:23.867Z,0.00
2017-10-04T03:47:23.830Z,0.00
2017-10-04T03:48:23.794Z,0.00
2017-10-04T03:49:23.759Z,0.00
2017-10-04T03:50:23.726Z,0.00
2017-10-04T03:51:23.691Z,0.00
2017-10-04T03:52:23.650Z,0.00
2017-10-04T03:53:23.617Z,0.00
2017-10-04T03:54:23.580Z,0.00
2017-10-04T03:55:23.546Z,0.00
2017-10-04T03:56:23.510Z,0.00
2017-10-04T03:57:23.474Z,0.00
2017-10-04T03:58:23.440Z,0.00
2017-10-04T03:59:23.402Z,0.00
2017-10-04T04:00:23.368Z,0.00
2017-10-04T04:01:23.331Z,0.00
2017-10-04T04:02:23.298Z,0.00
2017-10-04T04:03:23.263Z,0.00
2017-10-04T04:04:23.224Z,0.00
2017-10-04T04:05:23.192Z,0.00
2017-10-04T04:06:23.155Z,0.00
2017-10-04T04:07:23.118Z,0.00
2017-10-04T04:08:23.082Z,0.00
2017-10-04T04:09:23.049Z,0.00
2017-10-04T04:10:23.013Z,0.00
2017-10-04T04:11:22.977Z,0.00
2017-10-04T04:12:22.942Z,0.00
2017-10-04T04:13:22.906Z,0.00
2017-10-04T04:14:22.871Z,0.00
2017-10-04T04:15:22.835Z,0.00
2017-10-04T04:16:22.800Z,0.00
2017-10-04T04:17:22.764Z,0.00
2017-10-04T04:18:22.728Z,0.00
2017-10-04T04:19:22.693Z,0.00
2017-10-04T04:20:22.659Z,0.00
2017-10-04T04:21:22.623Z,0.00
2017-10-04T04:22:22.587Z,0.00
2017-10-04T04:23:22.552Z,0.00
2017-10-04T04:24:22.515Z,0.00
2017-10-04T04:25:22.480Z,0.00
2017-10-04T04:26:22.444Z,0.00
2017-10-04T04:27:22.410Z,0.00
2017-10-04T04:28:22.375Z,0.00
2017-10-04T04:29:22.339Z,0.00
2017-10-04T04:30:22.304Z,0.00
2017-10-04T04:31:22.266Z,0.00
2017-10-04T04:32:22.234Z,0.00
2017-10-04T04:33:22.194Z,0.00
2017-10-04T04:34:22.162Z,0.00
2017-10-04T04:35:22.125Z,0.00
2017-10-04T04:36:22.089Z,0.00
2017-10-04T04:37:22.055Z,0.00
2017-10-04T04:38:22.018Z,0.00
2017-10-04T04:39:21.983Z,0.00
2017-10-04T04:40:21.947Z,0.00
2017-10-04T04:41:21.911Z,0.00
2017-10-04T04:42:21.875Z,0.00
2017-10-04T04:43:21.839Z,0.00
2017-10-04T04:44:21.802Z,0.00
2017-10-04T04:45:21.768Z,0.00
2017-10-04T04:46:21.742Z,0.00
2017-10-04T04:47:21.698Z,0.00
2017-10-04T04:48:21.660Z,0.00
2017-10-04T04:49:21.626Z,0.00
2017-10-04T04:50:21.591Z,0.00
2017-10-04T04:51:21.553Z,0.00
2017-10-04T04:52:21.518Z,0.00
2017-10-04T04:53:21.485Z,0.00
2017-10-04T04:54:21.445Z,0.00
2017-10-04T04:55:21.410Z,0.00
2017-10-04T04:56:21.374Z,0.00
2017-10-04T04:57:21.337Z,0.00
2017-10-04T04:58:21.302Z,0.00
2017-10-04T04:59:21.271Z,0.00
2017-10-04T05:00:21.230Z,0.00
2017-10-04T05:01:21.196Z,0.00
2017-10-04T05:02:21.160Z,0.00
2017-10-04T05:03:21.124Z,0.00
2017-10-04T05:04:21.087Z,0.00
2017-10-04T05:05:21.052Z,0.00
2017-10-04T05:06:21.016Z,0.00
2017-10-04T05:07:20.979Z,0.00
2017-10-04T05:08:20.945Z,0.00
2017-10-04T05:09:20.909Z,0.00
2017-10-04T05:10:20.872Z,0.00
2017-10-04T05:11:20.838Z,0.00
2017-10-04T05:12:20.796Z,0.00
2017-10-04T05:13:20.765Z,0.00
2017-10-04T05:14:20.728Z,0.00
2017-10-04T05:15:20.694Z,0.00
2017-10-04T05:16:20.658Z,0.00
2017-10-04T05:17:20.625Z,0.00
2017-10-04T05:18:20.587Z,0.00
2017-10-04T05:19:20.551Z,0.00
2017-10-04T05:20:20.515Z,0.00
2017-10-04T05:21:20.479Z,0.00
2017-10-04T05:22:20.446Z,0.00
2017-10-04T05:23:20.408Z,0.00
2017-10-04T05:24:20.365Z,0.00
2017-10-04T05:25:20.339Z,0.00
2017-10-04T05:26:20.300Z,0.00
2017-10-04T05:27:20.265Z,0.00
2017-10-04T05:28:20.228Z,0.00
2017-10-04T05:29:20.193Z,0.00
2017-10-04T05:30:20.157Z,0.00
2017-10-04T05:31:20.121Z,0.00
2017-10-04T05:32:20.098Z,0.00
2017-10-04T05:33:20.050Z,0.00
2017-10-04T05:34:20.015Z,0.00
2017-10-04T05:35:19.979Z,0.00
2017-10-04T05:36:19.943Z,0.00
2017-10-04T05:37:19.907Z,0.00
2017-10-04T05:38:19.871Z,0.00
2017-10-04T05:39:19.836Z,0.00
2017-10-04T05:40:19.799Z,0.00
2017-10-04T05:41:19.762Z,0.00
2017-10-04T05:42:19.729Z,0.00
2017-10-04T05:43:19.693Z,0.00
2017-10-04T05:44:19.656Z,0.00
2017-10-04T05:45:19.621Z,0.00
2017-10-04T05:46:19.586Z,5.63
2017-10-04T05:47:19.550Z,5.63
2017-10-04T05:48:19.515Z,5.63
2017-10-04T05:49:19.481Z,5.63
2017-10-04T05:50:19.447Z,5.63
2017-10-04T05:51:19.409Z,5.63
2017-10-04T05:52:19.374Z,5.63
2017-10-04T05:53:19.336Z,5.63
2017-10-04T05:54:19.302Z,11.25
2017-10-04T05:55:19.266Z,11.25
2017-10-04T05:56:19.230Z,11.25
2017-10-04T05:57:19.195Z,11.25
2017-10-04T05:58:19.160Z,11.25
2017-10-04T05:59:19.124Z,11.25
2017-10-04T06:00:19.088Z,16.88
2017-10-04T06:01:19.054Z,16.88
2017-10-04T06:02:19.021Z,16.88
2017-10-04T06:03:18.983Z,16.88
2017-10-04T06:04:18.947Z,16.88
2017-10-04T06:05:18.911Z,16.88
2017-10-04T06:06:18.876Z,22.50
2017-10-04T06:07:18.841Z,22.50
2017-10-04T06:08:18.805Z,22.50
2017-10-04T06:09:18.769Z,28.13
2017-10-04T06:10:18.734Z,28.13
2017-10-04T06:11:18.699Z,28.13
2017-10-04T06:12:18.663Z,28.13
2017-10-04T06:13:18.628Z,28.13
2017-10-04T06:14:18.593Z,28.13
2017-10-04T06:15:18.559Z,33.75
2017-10-04T06:16:18.521Z,33.75
2017-10-04T06:17:18.485Z,33.75
2017-10-04T06:18:18.452Z,33.75
2017-10-04T06:19:18.418Z,33.75
2017-10-04T06:20:18.381Z,33.75
2017-10-04T06:21:18.345Z,39.38
2017-10-04T06:22:18.312Z,39.38
2017-10-04T06:23:18.275Z,45.00
2017-10-04T06:24:18.240Z,50.63
2017-10-04T06:25:18.206Z,56.25
2017-10-04T06:26:18.170Z,67.50
2017-10-04T06:27:18.134Z,67.50
2017-10-04T06:28:18.102Z,78.75
2017-10-04T06:29:18.064Z,84.38
2017-10-04T06:30:18.032Z,78.75
2017-10-04T06:31:17.995Z,78.75
2017-10-04T06:32:17.959Z,78.75
2017-10-04T06:33:17.926Z,73.13
2017-10-04T06:34:17.892Z,73.13
2017-10-04T06:35:17.856Z,73.13
2017-10-04T06:36:17.821Z,73.13
2017-10-04T06:37:17.788Z,73.13
2017-10-04T06:38:17.759Z,73.13
2017-10-04T06:39:17.718Z,67.50
2017-10-04T06:40:17.684Z,67.50
2017-10-04T06:41:17.650Z,67.50
2017-10-04T06:42:17.616Z,67.50
2017-10-04T06:43:17.581Z,67.50
2017-10-04T06:44:17.546Z,73.13
2017-10-04T06:45:17.515Z,73.13
2017-10-04T06:46:17.477Z,73.13
2017-10-04T06:47:17.444Z,67.50
2017-10-04T06:48:17.409Z,67.50
2017-10-04T06:49:17.375Z,61.88
2017-10-04T06:50:17.347Z,61.88
2017-10-04T06:51:17.308Z,61.88
2017-10-04T06:52:17.273Z,61.88
2017-10-04T06:53:17.238Z,61.88
2017-10-04T06:54:17.206Z,61.88
2017-10-04T06:55:17.172Z,56.25
2017-10-04T06:56:17.136Z,56.25
2017-10-04T06:57:17.104Z,56.25
2017-10-04T06:58:17.070Z,50.63
2017-10-04T06:59:17.036Z,50.63
2017-10-04T07:00:17.003Z,50.63
2017-10-04T07:01:16.967Z,50.63
2017-10-04T07:02:16.936Z,50.63
2017-10-04T07:03:16.904Z,50.63
2017-10-04T07:04:16.866Z,50.63
2017-10-04T07:05:16.832Z,50.63
2017-10-04T07:06:16.800Z,50.63
2017-10-04T07:07:16.765Z,50.63
2017-10-04T07:08:16.730Z,56.25
2017-10-04T07:09:16.696Z,56.25
2017-10-04T07:10:16.663Z,61.88
2017-10-04T07:11:16.629Z,61.88
2017-10-04T07:12:16.595Z,61.88
2017-10-04T07:13:16.562Z,61.88
2017-10-04T07:14:16.528Z,67.50
2017-10-04T07:15:16.495Z,67.50
2017-10-04T07:16:16.467Z,67.50
2017-10-04T07:17:16.426Z,73.13
2017-10-04T07:18:16.392Z,78.75
2017-10-04T07:19:16.360Z,84.38
2017-10-04T07:20:16.325Z,95.63
2017-10-04T07:21:16.291Z,101.25
2017-10-04T07:22:16.258Z,112.50
2017-10-04T07:23:16.224Z,118.13
2017-10-04T07:24:16.189Z,129.38
2017-10-04T07:25:16.162Z,180.00
2017-10-04T07:26:16.125Z,151.88
2017-10-04T07:27:16.090Z,146.25
2017-10-04T07:28:16.056Z,163.13
2017-10-04T07:29:16.024Z,118.13
2017-10-04T07:30:15.990Z,135.00
2017-10-04T07:31:15.957Z,106.88
2017-10-04T07:32:15.924Z,101.25
2017-10-04T07:33:15.894Z,90.00
2017-10-04T07:34:15.857Z,78.75
2017-10-04T07:35:15.824Z,78.75
2017-10-04T07:36:15.790Z,67.50
2017-10-04T07:37:15.758Z,67.50
2017-10-04T07:38:15.725Z,67.50
2017-10-04T07:39:15.692Z,73.13
2017-10-04T07:40:15.658Z,78.75
2017-10-04T07:41:15.625Z,78.75
2017-10-04T07:42:15.591Z,78.75
2017-10-04T07:43:15.559Z,78.75
2017-10-04T07:44:15.526Z,78.75
2017-10-04T07:45:15.493Z,84.38
2017-10-04T07:46:15.458Z,90.00
2017-10-04T07:47:15.425Z,95.63
2017-10-04T07:48:15.391Z,106.88
2017-10-04T07:49:15.359Z,123.75
2017-10-04T07:50:15.327Z,135.00
2017-10-04T07:51:15.288Z,140.63
2017-10-04T07:52:15.258Z,146.25
2017-10-04T07:53:15.230Z,157.50
2017-10-04T07:54:15.194Z,163.13
2017-10-04T07:55:15.159Z,163.13
2017-10-04T07:56:15.125Z,168.75
2017-10-04T07:57:15.093Z,185.63
2017-10-04T07:58:15.066Z,196.88
2017-10-04T07:59:15.026Z,191.25
2017-10-04T08:00:14.994Z,174.38
2017-10-04T08:01:14.961Z,185.63
2017-10-04T08:02:14.928Z,185.63
2017-10-04T08:03:14.896Z,140.63
2017-10-04T08:04:14.861Z,135.00
2017-10-04T08:05:14.833Z,140.63
2017-10-04T08:06:14.797Z,146.25
2017-10-04T08:07:14.765Z,151.88
2017-10-04T08:08:14.735Z,157.50
2017-10-04T08:09:14.699Z,168.75
2017-10-04T08:10:14.667Z,168.75
2017-10-04T08:11:14.642Z,168.75
2017-10-04T08:12:14.602Z,163.13
2017-10-04T08:13:14.570Z,163.13
2017-10-04T08:14:14.537Z,163.13
2017-10-04T08:15:14.505Z,151.88
2017-10-04T08:16:14.476Z,146.25
2017-10-04T08:17:14.439Z,140.63
2017-10-04T08:18:14.409Z,146.25
2017-10-04T08:19:14.377Z,140.63
2017-10-04T08:20:14.343Z,140.63
2017-10-04T08:21:14.310Z,140.63
2017-10-04T08:22:14.278Z,140.63
2017-10-04T08:23:14.246Z,140.63
2017-10-04T08:24:14.213Z,146.25
2017-10-04T08:25:14.181Z,151.88
2017-10-04T08:26:14.149Z,163.13
2017-10-04T08:27:14.114Z,168.75
2017-10-04T08:28:14.083Z,174.38
2017-10-04T08:29:14.053Z,174.38
2017-10-04T08:30:14.020Z,180.00
2017-10-04T08:31:13.988Z,191.25
2017-10-04T08:32:13.954Z,196.88
2017-10-04T08:33:13.923Z,196.88
2017-10-04T08:34:13.891Z,191.25
2017-10-04T08:35:13.859Z,185.63
2017-10-04T08:36:13.826Z,180.00
2017-10-04T08:37:13.789Z,168.75
2017-10-04T08:38:13.763Z,157.50
2017-10-04T08:39:13.732Z,146.25
2017-10-04T08:40:13.697Z,140.63
2017-10-04T08:41:13.666Z,146.25
2017-10-04T08:42:13.635Z,163.13
2017-10-04T08:43:13.604Z,180.00
2017-10-04T08:44:13.571Z,202.50
2017-10-04T08:45:13.539Z,213.75
2017-10-04T08:46:13.508Z,225.00
2017-10-04T08:47:13.474Z,241.88
2017-10-04T08:48:13.442Z,264.38
2017-10-04T08:49:13.410Z,309.38
2017-10-04T08:50:13.378Z,281.25
2017-10-04T08:51:13.346Z,275.63
2017-10-04T08:52:13.316Z,264.38
2017-10-04T08:53:13.281Z,241.88
2017-10-04T08:54:13.250Z,230.63
2017-10-04T08:55:13.217Z,225.00
2017-10-04T08:56:13.186Z,225.00
2017-10-04T08:57:13.154Z,236.25
2017-10-04T08:58:13.122Z,236.25
2017-10-04T08:59:13.093Z,247.50
2017-10-04T09:00:13.061Z,298.13
2017-10-04T09:01:13.028Z,258.75
2017-10-04T09:02:12.995Z,241.88
2017-10-04T09:03:12.966Z,253.13
2017-10-04T09:04:12.931Z,292.50
2017-10-04T09:05:12.901Z,303.75
2017-10-04T09:06:12.869Z,315.00
2017-10-04T09:07:12.838Z,371.25
2017-10-04T09:08:12.809Z,331.88
2017-10-04T09:09:12.775Z,354.38
2017-10-04T09:10:12.743Z,315.00
2017-10-04T09:11:12.713Z,337.50
2017-10-04T09:12:12.680Z,247.50
2017-10-04T09:13:12.648Z,241.88
2017-10-04T09:14:12.618Z,247.50
2017-10-04T09:15:12.587Z,247.50
2017-10-04T09:16:12.555Z,247.50
2017-10-04T09:17:12.525Z,270.00
2017-10-04T09:18:12.495Z,286.88
2017-10-04T09:19:12.466Z,292.50
2017-10-04T09:20:12.435Z,309.38
2017-10-04T09:21:12.399Z,343.13
2017-10-04T09:22:12.371Z,326.25
2017-10-04T09:23:12.339Z,382.50
2017-10-04T09:24:12.309Z,399.38
2017-10-04T09:25:12.276Z,478.13
2017-10-04T09:26:12.247Z,551.25
2017-10-04T09:27:12.218Z,472.50
2017-10-04T09:28:12.185Z,478.13
2017-10-04T09:29:12.158Z,545.63
2017-10-04T09:30:12.125Z,376.88
2017-10-04T09:31:12.098Z,348.75
2017-10-04T09:32:12.063Z,348.75
2017-10-04T09:33:12.036Z,455.63
2017-10-04T09:34:12.003Z,472.50
2017-10-04T09:35:11.973Z,523.13
2017-10-04T09:36:11.942Z,736.88
2017-10-04T09:37:11.917Z,562.50
2017-10-04T09:38:11.883Z,1018.13
2017-10-04T09:39:11.853Z,1040.63
2017-10-04T09:40:11.823Z,860.63
2017-10-04T09:41:11.794Z,888.75
2017-10-04T09:42:11.765Z,832.50
2017-10-04T09:43:11.735Z,714.38
2017-10-04T09:44:11.705Z,905.63
2017-10-04T09:45:11.676Z,815.63
2017-10-04T09:46:11.647Z,1344.38
2017-10-04T09:47:11.618Z,1288.13
2017-10-04T09:48:11.590Z,1496.25
2017-10-04T09:49:11.561Z,1451.25
2017-10-04T09:50:11.536Z,781.88
2017-10-04T09:51:11.507Z,748.13
2017-10-04T09:52:11.477Z,1018.13
2017-10-04T09:53:11.451Z,1563.75
2017-10-04T09:54:11.424Z,1591.88
2017-10-04T09:55:11.397Z,1361.25
2017-10-04T09:56:11.368Z,1546.88
2017-10-04T09:57:11.342Z,1299.38
2017-10-04T09:58:11.316Z,1805.63
2017-10-04T09:59:11.289Z,1631.25
2017-10-04T10:00:11.262Z,1535.63
2017-10-04T10:01:11.235Z,990.00
2017-10-04T10:02:11.213Z,551.25
2017-10-04T10:03:11.185Z,697.50
2017-10-04T10:04:11.159Z,675.00
2017-10-04T10:05:11.132Z,658.13
2017-10-04T10:06:11.106Z,534.38
2017-10-04T10:07:11.080Z,1203.75
2017-10-04T10:08:11.052Z,1389.38
2017-10-04T10:09:11.026Z,731.25
2017-10-04T10:10:11.000Z,849.38
2017-10-04T10:11:10.974Z,843.75
2017-10-04T10:12:10.946Z,1631.25
2017-10-04T10:13:10.920Z,1119.38
2017-10-04T10:14:10.895Z,765.00
2017-10-04T10:15:10.870Z,585.00
2017-10-04T10:16:10.841Z,1569.38
2017-10-04T10:17:10.817Z,1749.38
2017-10-04T10:18:10.791Z,1406.25
2017-10-04T10:19:10.766Z,990.00
2017-10-04T10:20:10.741Z,675.00
2017-10-04T10:21:10.714Z,753.75
2017-10-04T10:22:10.693Z,528.75
2017-10-04T10:23:10.664Z,585.00
2017-10-04T10:24:10.640Z,416.25
2017-10-04T10:25:10.612Z,478.13
2017-10-04T10:26:10.588Z,568.13
2017-10-04T10:27:10.560Z,455.63
2017-10-04T10:28:10.533Z,331.88
2017-10-04T10:29:10.508Z,337.50
2017-10-04T10:30:10.479Z,298.13
2017-10-04T10:31:10.458Z,320.63
2017-10-04T10:32:10.425Z,303.75
2017-10-04T10:33:10.409Z,270.00
2017-10-04T10:34:10.368Z,258.75
2017-10-04T10:35:10.339Z,309.38
2017-10-04T10:36:10.311Z,326.25
2017-10-04T10:37:10.283Z,331.88
2017-10-04T10:38:10.256Z,399.38
2017-10-04T10:39:10.225Z,405.00
2017-10-04T10:40:10.196Z,348.75
2017-10-04T10:41:10.166Z,326.25
2017-10-04T10:42:10.137Z,331.88
2017-10-04T10:43:10.158Z,337.50
2017-10-04T10:44:10.076Z,315.00
2017-10-04T10:45:10.052Z,326.25
2017-10-04T10:46:10.020Z,388.13
2017-10-04T10:47:09.991Z,354.38
2017-10-04T10:48:09.959Z,382.50
2017-10-04T10:49:09.930Z,315.00
2017-10-04T10:50:09.899Z,365.63
2017-10-04T10:51:09.870Z,315.00
2017-10-04T10:52:09.839Z,247.50
2017-10-04T10:53:09.809Z,360.00
2017-10-04T10:54:09.783Z,298.13
2017-10-04T10:55:09.750Z,382.50
2017-10-04T10:56:09.721Z,573.75
2017-10-04T10:57:09.693Z,472.50
2017-10-04T10:58:09.659Z,376.88
2017-10-04T10:59:09.630Z,292.50
2017-10-04T11:00:09.600Z,433.13
2017-10-04T11:01:09.571Z,540.00
2017-10-04T11:02:09.540Z,1293.75
2017-10-04T11:03:09.511Z,393.75
2017-10-04T11:04:09.484Z,292.50
2017-10-04T11:05:09.450Z,669.38
2017-10-04T11:06:09.421Z,686.25
2017-10-04T11:07:09.392Z,1125.00
2017-10-04T11:08:09.361Z,1648.13
2017-10-04T11:09:09.331Z,1192.50
2017-10-04T11:10:09.302Z,1530.00
2017-10-04T11:11:09.276Z,1383.75
2017-10-04T11:12:09.245Z,1096.88
2017-10-04T11:13:09.216Z,1130.63
2017-10-04T11:14:09.188Z,871.88
2017-10-04T11:15:09.162Z,421.88
2017-10-04T11:16:09.132Z,455.63
2017-10-04T11:17:09.106Z,376.88
2017-10-04T11:18:09.076Z,720.00
2017-10-04T11:19:09.048Z,461.25
2017-10-04T11:20:09.019Z,286.88
2017-10-04T11:21:08.995Z,225.00
2017-10-04T11:22:08.963Z,264.38
2017-10-04T11:23:08.935Z,1046.25
2017-10-04T11:24:08.904Z,270.00
2017-10-04T11:25:08.876Z,309.38
2017-10-04T11:26:08.846Z,281.25
2017-10-04T11:27:08.819Z,241.88
2017-10-04T11:28:08.788Z,230.63
2017-10-04T11:29:08.759Z,309.38
2017-10-04T11:30:08.728Z,382.50
2017-10-04T11:31:08.698Z,376.88
2017-10-04T11:32:08.668Z,562.50
2017-10-04T11:33:08.639Z,1462.50
2017-10-04T11:34:08.609Z,956.25
2017-10-04T11:35:08.579Z,1074.38
2017-10-04T11:36:08.548Z,2401.88
2017-10-04T11:37:08.518Z,2846.25
2017-10-04T11:38:08.492Z,1890.00
2017-10-04T11:39:08.465Z,635.63
2017-10-04T11:40:08.437Z,1029.38
2017-10-04T11:41:08.407Z,1186.88
2017-10-04T11:42:08.379Z,798.75
2017-10-04T11:43:08.351Z,517.50
2017-10-04T11:44:08.324Z,849.38
2017-10-04T11:45:08.300Z,793.13
2017-10-04T11:46:08.284Z,624.38
2017-10-04T11:47:08.243Z,630.00
2017-10-04T11:48:08.215Z,849.38
2017-10-04T11:49:08.188Z,804.38
2017-10-04T11:50:08.161Z,973.13
2017-10-04T11:51:08.133Z,613.13
2017-10-04T11:52:08.108Z,590.63
2017-10-04T11:53:08.079Z,540.00
2017-10-04T11:54:08.051Z,568.13
2017-10-04T11:55:08.028Z,613.13
2017-10-04T11:56:07.998Z,579.38
2017-10-04T11:57:07.971Z,630.00
2017-10-04T11:58:07.942Z,635.63
2017-10-04T11:59:07.914Z,725.63
2017-10-04T12:00:07.886Z,708.75
2017-10-04T12:01:07.858Z,624.38
2017-10-04T12:02:07.829Z,568.13
2017-10-04T12:03:07.801Z,691.88
2017-10-04T12:04:07.779Z,675.00
2017-10-04T12:05:07.745Z,1203.75
2017-10-04T12:06:07.715Z,1625.63
2017-10-04T12:07:07.695Z,2081.25
2017-10-04T12:08:07.660Z,2008.13
2017-10-04T12:09:07.635Z,1378.13
2017-10-04T12:10:07.607Z,1293.75
2017-10-04T12:11:07.580Z,1080.00
2017-10-04T12:12:07.552Z,961.88
2017-10-04T12:13:07.527Z,1203.75
2017-10-04T12:14:07.499Z,556.88
2017-10-04T12:15:07.474Z,1411.88
2017-10-04T12:16:07.446Z,1338.75
2017-10-04T12:17:07.421Z,888.75
2017-10-04T12:18:07.392Z,427.50
2017-10-04T12:19:07.369Z,365.63
2017-10-04T12:20:07.338Z,343.13
2017-10-04T12:21:07.310Z,360.00
2017-10-04T12:22:07.288Z,410.63
2017-10-04T12:23:07.258Z,573.75
2017-10-04T12:24:07.224Z,697.50
2017-10-04T12:25:07.200Z,618.75
2017-10-04T12:26:07.171Z,669.38
2017-10-04T12:27:07.144Z,804.38
2017-10-04T12:28:07.117Z,663.75
2017-10-04T12:29:07.086Z,613.13
2017-10-04T12:30:07.058Z,675.00
2017-10-04T12:31:07.036Z,1085.63
2017-10-04T12:32:07.002Z,1288.13
2017-10-04T12:33:06.976Z,1670.63
2017-10-04T12:34:06.947Z,1198.13
2017-10-04T12:35:06.924Z,1243.13
2017-10-04T12:36:06.893Z,590.63
2017-10-04T12:37:06.866Z,826.88
2017-10-04T12:38:06.841Z,759.38
2017-10-04T12:39:06.814Z,770.63
2017-10-04T12:40:06.784Z,888.75
2017-10-04T12:41:06.758Z,675.00
2017-10-04T12:42:06.732Z,590.63
2017-10-04T12:43:06.707Z,568.13
2017-10-04T12:44:06.678Z,540.00
2017-10-04T12:45:06.652Z,506.25
2017-10-04T12:46:06.622Z,466.88
2017-10-04T12:47:06.598Z,433.13
2017-10-04T12:48:06.566Z,410.63
2017-10-04T12:49:06.539Z,416.25
2017-10-04T12:50:06.510Z,399.38
2017-10-04T12:51:06.489Z,388.13
2017-10-04T12:52:06.453Z,376.88